Main page
METAR-TAF:

METAR-TAF

Airports :

Oil platform

Ekofisk, Norway

latitude: 56-33N, longitude: 003-15E, elevation: 3 m

Current weather observation

The report was made 11 minutes ago, at 06:20 UTC
Wind 15 kt from the Southwest
Temperature 12°C
Humidity 94%
Pressure 1013 hPa
Visibility 10 km or more
Few clouds at a height of 1000 ft
Broken clouds at a height of 2000 ft

METAR: ENLE 170620Z 22015KT 9999 FEW010 BKN020 12/11 Q1013 W12/S3

Time: 08:31 (06:31 UTC)

Forecast

The report was made 1 hour and 31 minutes ago, at 05:00 UTC
Forecast valid from 17 at 06 UTC to 17 at 15 UTC
Wind 15 kt from the West/Southwest
Visibility 10 km or more
Few clouds at a height of 1000 ft
Broken clouds at a height of 2000 ft
Probability 30%
from 17 at 06 UTC to 17 at 09 UTC
Visibility: 4000 m
Broken clouds at a height of 800 ft
mist
Becoming
from 17 at 12 UTC to 17 at 15 UTC
Wind 15 kt from the West/Northwest

TAF: ENLE 170500Z 1706/1715 24015KT 9999 FEW010 BKN020 PROB30 1706/1709 4000 BR BKN008 BECMG 1712/1715 30015KT

Weather observations and forecasts of more than 4000 airports (METAR and TAF reports).

The available stations are represented by yellow and red dots on the map.

Hover mouse over dot to see the name of the station.

Then click to see weather observations and forecasts.

To change the map : click on the green buttons with a black cross to zoom in, on the green button with a dash to zoom out, or on the green arrows for adjacent maps.


METAR-TAF: